createdAt,value
2023-01-08T11:01:47.746Z,80.24
2023-01-08T11:04:55.013Z,80.50
2023-01-08T11:08:05.860Z,80.31
2023-01-08T11:11:13.469Z,80.47
2023-01-08T11:14:26.747Z,80.48
2023-01-08T11:17:34.099Z,80.27
2023-01-08T11:20:42.095Z,80.14
2023-01-08T11:23:49.340Z,80.24
2023-01-08T11:26:59.136Z,80.20
2023-01-08T11:30:08.583Z,80.08
2023-01-08T11:33:19.925Z,79.89
2023-01-08T11:36:31.669Z,79.69
2023-01-08T11:39:39.148Z,79.53
2023-01-08T11:42:57.598Z,79.61
2023-01-08T11:46:31.512Z,79.50
2023-01-08T11:50:00.006Z,79.34
2023-01-08T11:53:18.766Z,79.38
2023-01-08T11:56:41.125Z,79.29
2023-01-08T12:00:03.244Z,79.05
2023-01-08T12:03:27.430Z,78.88
2023-01-08T12:06:42.913Z,78.78
2023-01-08T12:09:54.470Z,78.62
2023-01-08T12:13:14.779Z,78.64
2023-01-08T12:16:39.135Z,78.57
2023-01-08T12:20:00.119Z,78.64
2023-01-08T12:23:21.077Z,78.67
2023-01-08T12:26:35.758Z,78.51
2023-01-08T12:30:09.543Z,78.45
2023-01-08T12:33:34.780Z,78.42
2023-01-08T12:36:45.530Z,78.33
2023-01-08T12:40:01.190Z,78.20
2023-01-08T12:43:14.446Z,77.89
2023-01-08T12:46:21.657Z,77.60
2023-01-08T12:49:35.901Z,77.64
2023-01-08T12:52:50.691Z,77.61
2023-01-08T12:56:06.279Z,77.57
2023-01-08T12:59:26.355Z,77.19
2023-01-08T13:02:40.676Z,77.17
2023-01-08T13:05:47.076Z,77.11
2023-01-08T13:08:55.067Z,77.00
2023-01-08T13:12:02.505Z,76.93
2023-01-08T13:15:20.732Z,77.00
2023-01-08T13:18:26.900Z,76.93
2023-01-08T13:21:39.077Z,76.96
2023-01-08T13:24:45.321Z,76.82
2023-01-08T13:27:51.741Z,76.72
2023-01-08T13:31:09.356Z,76.55
2023-01-08T13:34:36.900Z,76.56
2023-01-08T13:37:43.383Z,76.48
2023-01-08T13:40:57.782Z,76.23
2023-01-08T13:44:06.603Z,76.13
2023-01-08T13:47:23.597Z,76.10
2023-01-08T13:50:30.717Z,76.01
2023-01-08T13:53:38.015Z,75.95
2023-01-08T13:56:45.997Z,75.96
2023-01-08T13:59:57.371Z,75.94
2023-01-08T14:03:03.708Z,75.68
2023-01-08T14:06:16.339Z,75.68
2023-01-08T14:09:25.289Z,75.70
2023-01-08T14:12:31.692Z,75.58
2023-01-08T14:15:39.880Z,75.31
2023-01-08T14:18:47.462Z,75.13
2023-01-08T14:21:56.360Z,75.36
2023-01-08T14:25:07.778Z,75.28
2023-01-08T14:28:20.087Z,75.07
2023-01-08T14:31:28.149Z,74.90
2023-01-08T14:34:39.180Z,74.82
2023-01-08T14:37:45.411Z,74.96
2023-01-08T14:41:01.717Z,75.02
2023-01-08T14:44:14.044Z,74.90
2023-01-08T14:47:22.008Z,74.86
2023-01-08T14:50:30.264Z,74.76
2023-01-08T14:53:39.507Z,74.65
2023-01-08T14:56:48.822Z,74.83
2023-01-08T14:59:58.117Z,74.82
2023-01-08T15:03:04.364Z,74.55
2023-01-08T15:06:12.048Z,74.68
2023-01-08T15:09:35.954Z,74.73
2023-01-08T15:12:42.119Z,74.60
2023-01-08T15:15:57.191Z,74.60
2023-01-08T15:19:08.762Z,74.50
2023-01-08T15:22:20.522Z,74.38
2023-01-08T15:25:29.445Z,74.42
2023-01-08T15:28:35.746Z,74.53
2023-01-08T15:31:50.474Z,74.39
2023-01-08T15:34:56.599Z,74.41
2023-01-08T15:38:02.818Z,74.14
2023-01-08T15:41:10.764Z,74.12
2023-01-08T15:44:16.972Z,74.20
2023-01-08T15:47:23.152Z,74.47
2023-01-08T15:50:32.425Z,74.65
2023-01-08T15:53:38.481Z,74.46
2023-01-08T15:56:44.889Z,74.35
2023-01-08T15:59:49.350Z,74.42
2023-01-08T16:02:56.451Z,74.47
2023-01-08T16:06:06.601Z,74.38
2023-01-08T16:09:12.830Z,74.27
2023-01-08T16:12:18.994Z,74.12
2023-01-08T16:15:25.169Z,74.30
2023-01-08T16:18:31.439Z,74.33
2023-01-08T16:21:35.996Z,74.50
2023-01-08T16:24:42.232Z,74.59
2023-01-08T16:27:48.443Z,74.54
2023-01-08T16:30:54.904Z,74.68
2023-01-08T16:34:05.372Z,74.70
2023-01-08T16:37:11.619Z,74.70
2023-01-08T16:40:19.294Z,74.63
2023-01-08T16:43:25.920Z,74.32
2023-01-08T16:46:32.134Z,74.43
2023-01-08T16:49:39.800Z,74.56
2023-01-08T16:52:47.743Z,74.68
2023-01-08T16:55:53.966Z,74.86
2023-01-08T16:59:00.119Z,74.82
2023-01-08T17:02:06.727Z,74.57
2023-01-08T17:05:13.125Z,74.63
2023-01-08T17:08:19.942Z,74.78
2023-01-08T17:11:26.322Z,74.71
2023-01-08T17:14:31.331Z,74.95
2023-01-08T17:17:37.809Z,74.79
2023-01-08T17:20:43.977Z,74.94
2023-01-08T17:23:50.207Z,75.01
2023-01-08T17:26:58.281Z,75.04
2023-01-08T17:30:04.755Z,75.07
2023-01-08T17:33:13.976Z,75.07
2023-01-08T17:36:22.873Z,75.05
2023-01-08T17:39:29.307Z,74.94
2023-01-08T17:42:33.867Z,75.10
2023-01-08T17:45:42.110Z,75.16
2023-01-08T17:48:49.076Z,75.35
2023-01-08T17:51:57.103Z,75.12
2023-01-08T17:55:03.294Z,75.09
2023-01-08T17:58:09.813Z,75.07
2023-01-08T18:01:16.083Z,75.11
2023-01-08T18:04:20.671Z,75.44
2023-01-08T18:07:26.886Z,75.20
2023-01-08T18:10:33.236Z,75.01
2023-01-08T18:13:39.690Z,75.19
2023-01-08T18:16:49.759Z,75.06
2023-01-08T18:19:56.011Z,75.12
2023-01-08T18:23:02.112Z,75.24
2023-01-08T18:26:12.223Z,75.40
2023-01-08T18:29:18.722Z,75.40
2023-01-08T18:32:26.206Z,75.50
2023-01-08T18:35:33.524Z,75.37
2023-01-08T18:38:44.183Z,75.30
2023-01-08T18:42:07.850Z,75.45
2023-01-08T18:45:15.179Z,75.61
2023-01-08T18:48:21.219Z,75.86
2023-01-08T18:51:28.686Z,75.75
2023-01-08T18:54:35.549Z,75.73
2023-01-08T18:57:41.866Z,75.70
2023-01-08T19:00:48.446Z,75.78
2023-01-08T19:03:55.744Z,75.86
2023-01-08T19:07:04.595Z,76.09
2023-01-08T19:10:16.010Z,76.02
2023-01-08T19:13:22.735Z,76.00
2023-01-08T19:16:30.149Z,75.66
2023-01-08T19:19:38.995Z,75.48
2023-01-08T19:22:45.708Z,75.69
2023-01-08T19:25:52.979Z,75.86
2023-01-08T19:28:59.549Z,75.80
2023-01-08T19:32:07.876Z,75.69
2023-01-08T19:35:22.341Z,76.00
2023-01-08T19:38:29.687Z,76.34
2023-01-08T19:41:56.864Z,76.37
2023-01-08T19:45:03.441Z,76.33
2023-01-08T19:48:10.427Z,76.31
2023-01-08T19:51:18.236Z,76.14
2023-01-08T19:54:25.993Z,76.06
2023-01-08T19:57:32.207Z,76.22
2023-01-08T20:00:39.673Z,76.16
2023-01-08T20:03:46.591Z,76.19
2023-01-08T20:06:53.583Z,76.44
2023-01-08T20:10:04.080Z,76.34
2023-01-08T20:13:10.496Z,76.31
2023-01-08T20:16:18.887Z,76.37
2023-01-08T20:19:28.940Z,76.36
2023-01-08T20:22:35.198Z,76.45
2023-01-08T20:25:42.077Z,76.60
2023-01-08T20:28:52.001Z,76.63
2023-01-08T20:31:59.499Z,76.62
2023-01-08T20:35:06.603Z,76.56
2023-01-08T20:38:12.797Z,76.53
2023-01-08T20:41:19.273Z,76.51
2023-01-08T20:44:26.040Z,76.50
2023-01-08T20:47:35.011Z,76.43
2023-01-08T20:50:44.947Z,76.57
2023-01-08T20:53:51.465Z,76.74
2023-01-08T20:56:59.529Z,76.93
2023-01-08T21:00:06.861Z,76.84
2023-01-08T21:03:13.553Z,76.87
2023-01-08T21:06:21.220Z,76.77
2023-01-08T21:09:28.480Z,77.06
2023-01-08T21:12:35.763Z,77.17
2023-01-08T21:15:41.984Z,77.07
2023-01-08T21:18:48.643Z,77.09
2023-01-08T21:21:54.873Z,77.15
2023-01-08T21:25:01.165Z,77.02
2023-01-08T21:28:08.646Z,76.96
2023-01-08T21:31:16.803Z,77.30
2023-01-08T21:34:23.036Z,77.42
2023-01-08T21:37:30.338Z,77.49
2023-01-08T21:40:36.568Z,77.56
2023-01-08T21:43:59.936Z,77.50
2023-01-08T21:47:08.440Z,77.55
2023-01-08T21:50:15.268Z,77.65
2023-01-08T21:53:36.159Z,77.53
2023-01-08T21:56:42.724Z,77.63
2023-01-08T21:59:51.831Z,77.57
2023-01-08T22:02:58.139Z,77.86
2023-01-08T22:06:03.435Z,77.83
2023-01-08T22:09:09.758Z,77.48
2023-01-08T22:12:15.151Z,77.74
2023-01-08T22:15:21.642Z,77.78
2023-01-08T22:18:27.923Z,77.94
2023-01-08T22:21:34.153Z,78.13
2023-01-08T22:24:41.054Z,78.14
2023-01-08T22:27:51.239Z,78.20
2023-01-08T22:30:57.863Z,78.05
2023-01-08T22:34:04.138Z,78.02
2023-01-08T22:37:10.410Z,78.01
2023-01-08T22:40:17.397Z,78.04
2023-01-08T22:43:23.657Z,78.17
2023-01-08T22:46:29.942Z,77.97
2023-01-08T22:49:34.659Z,78.18
2023-01-08T22:52:41.034Z,78.19
2023-01-08T22:55:46.993Z,78.18
2023-01-08T22:58:51.820Z,78.06
2023-01-08T23:01:58.048Z,77.96
2023-01-08T23:05:05.019Z,77.95
2023-01-08T23:08:11.960Z,78.18
2023-01-08T23:11:20.373Z,78.25
2023-01-08T23:14:26.633Z,78.40
2023-01-08T23:17:38.906Z,78.38
2023-01-08T23:20:50.819Z,78.45
2023-01-08T23:23:55.348Z,78.43
2023-01-08T23:27:01.599Z,78.50
2023-01-08T23:30:09.565Z,78.36
2023-01-08T23:33:15.803Z,78.28
2023-01-08T23:36:22.955Z,78.39
2023-01-08T23:39:29.235Z,78.61
2023-01-08T23:42:35.710Z,78.37
2023-01-08T23:45:42.178Z,78.38
2023-01-08T23:48:51.062Z,78.52
2023-01-08T23:51:57.811Z,78.62
2023-01-08T23:55:04.102Z,78.77
2023-01-08T23:58:08.563Z,78.63
